createdAt,value
2023-10-07T00:01:13.528Z,10.95
2023-10-07T00:06:13.896Z,10.20
2023-10-07T00:08:44.172Z,9.68
2023-10-07T00:11:16.049Z,14.38
2023-10-07T00:13:46.487Z,9.70
2023-10-07T00:16:20.592Z,8.13
2023-10-07T00:18:50.799Z,14.18
2023-10-07T00:21:29.493Z,15.65
2023-10-07T00:24:00.176Z,11.40
2023-10-07T00:26:31.732Z,10.73
2023-10-07T00:29:04.594Z,11.60
2023-10-07T00:31:36.512Z,11.45
2023-10-07T00:34:20.763Z,14.65
2023-10-07T00:36:50.961Z,13.90
2023-10-07T00:39:24.366Z,13.82
2023-10-07T00:42:00.451Z,11.50
2023-10-07T00:44:38.299Z,10.82
2023-10-07T00:47:14.607Z,7.30
2023-10-07T00:50:05.864Z,13.80
2023-10-07T00:52:43.353Z,8.88
2023-10-07T00:55:21.169Z,11.52
2023-10-07T00:58:11.269Z,16.52
2023-10-07T01:00:42.391Z,9.20
2023-10-07T01:03:19.347Z,14.85
2023-10-07T01:06:16.399Z,12.02
2023-10-07T01:08:46.661Z,16.77
2023-10-07T01:11:25.313Z,14.02
2023-10-07T01:13:58.990Z,14.27
2023-10-07T01:16:43.396Z,12.73
2023-10-07T01:19:21.717Z,13.02
2023-10-07T01:22:11.368Z,13.57
2023-10-07T01:24:42.052Z,8.85
2023-10-07T01:27:29.788Z,12.30
2023-10-07T01:30:02.982Z,11.88
2023-10-07T01:32:36.337Z,17.50
2023-10-07T01:35:13.217Z,11.43
2023-10-07T01:37:45.556Z,18.48
2023-10-07T01:40:19.103Z,11.52
2023-10-07T01:42:49.272Z,11.95
2023-10-07T01:45:28.558Z,10.23
2023-10-07T01:47:59.822Z,7.45
2023-10-07T01:50:34.652Z,10.13
2023-10-07T01:53:06.376Z,10.45
2023-10-07T01:55:46.112Z,13.13
2023-10-07T01:58:17.420Z,13.80
2023-10-07T02:00:54.032Z,9.63
2023-10-07T02:03:25.380Z,11.65
2023-10-07T02:05:56.409Z,13.80
2023-10-07T02:08:27.483Z,11.70
2023-10-07T02:11:02.062Z,11.82
2023-10-07T02:13:32.341Z,8.48
2023-10-07T02:16:11.540Z,7.97
2023-10-07T02:18:46.778Z,9.63
2023-10-07T02:21:23.028Z,16.63
2023-10-07T02:23:53.236Z,9.13
2023-10-07T02:26:24.127Z,15.65
2023-10-07T02:28:55.827Z,9.52
2023-10-07T02:31:28.225Z,10.57
2023-10-07T02:34:00.046Z,9.45
2023-10-07T02:36:39.051Z,8.05
2023-10-07T02:39:21.978Z,9.63
2023-10-07T02:41:52.622Z,11.15
2023-10-07T02:44:32.280Z,10.48
2023-10-07T02:47:14.154Z,10.07
2023-10-07T02:49:49.714Z,11.43
2023-10-07T02:52:21.817Z,8.48
2023-10-07T02:55:12.088Z,7.35
2023-10-07T02:57:42.306Z,8.68
2023-10-07T03:00:34.473Z,10.55
2023-10-07T03:03:25.050Z,13.18
2023-10-07T03:06:01.183Z,10.60
2023-10-07T03:08:51.806Z,8.55
2023-10-07T03:11:25.859Z,9.65
2023-10-07T03:14:02.075Z,13.10
2023-10-07T03:16:35.210Z,18.15
2023-10-07T03:19:05.529Z,8.63
2023-10-07T03:21:42.531Z,9.73
2023-10-07T03:24:14.384Z,10.80
2023-10-07T03:26:48.806Z,9.73
2023-10-07T03:29:33.016Z,9.93
2023-10-07T03:32:03.716Z,10.27
2023-10-07T03:34:34.147Z,7.80
2023-10-07T03:37:13.224Z,7.40
2023-10-07T03:40:19.231Z,9.23
2023-10-07T03:42:49.502Z,8.00
2023-10-07T03:45:20.399Z,7.05
2023-10-07T03:47:52.972Z,10.18
2023-10-07T03:50:31.917Z,10.50
2023-10-07T03:53:02.123Z,5.30
2023-10-07T03:55:32.585Z,11.43
2023-10-07T03:58:02.930Z,9.48
2023-10-07T04:00:36.050Z,8.55
2023-10-07T04:03:10.089Z,8.95
2023-10-07T04:05:48.230Z,6.88
2023-10-07T04:08:22.045Z,7.63
2023-10-07T04:10:56.940Z,5.60
2023-10-07T04:13:27.182Z,6.07
2023-10-07T04:15:59.743Z,9.75
2023-10-07T04:18:39.057Z,4.93
2023-10-07T04:21:09.530Z,9.95
2023-10-07T04:23:46.065Z,6.65
2023-10-07T04:26:21.993Z,6.47
2023-10-07T04:28:55.736Z,6.38
2023-10-07T04:31:32.743Z,7.88
2023-10-07T04:34:05.272Z,5.95
2023-10-07T04:36:57.086Z,9.65
2023-10-07T04:39:59.634Z,3.90
2023-10-07T04:42:40.215Z,7.65
2023-10-07T04:45:24.467Z,3.97
2023-10-07T04:47:59.757Z,5.03
2023-10-07T04:50:39.942Z,10.30
2023-10-07T04:53:10.233Z,7.38
2023-10-07T04:55:42.432Z,7.30
2023-10-07T04:58:15.166Z,5.90
2023-10-07T05:00:49.708Z,6.70
2023-10-07T05:03:21.828Z,6.25
2023-10-07T05:05:52.919Z,7.40
2023-10-07T05:08:24.587Z,5.00
2023-10-07T05:11:06.919Z,4.47
2023-10-07T05:13:38.247Z,5.05
2023-10-07T05:16:10.508Z,4.93
2023-10-07T05:18:41.382Z,5.18
2023-10-07T05:21:13.485Z,3.35
2023-10-07T05:23:44.422Z,9.63
2023-10-07T05:26:19.559Z,5.10
2023-10-07T05:28:49.956Z,4.90
2023-10-07T05:31:20.246Z,6.40
2023-10-07T05:33:50.521Z,5.05
2023-10-07T05:36:23.532Z,3.20
2023-10-07T05:38:53.786Z,4.20
2023-10-07T05:41:27.463Z,3.75
2023-10-07T05:43:58.058Z,4.03
2023-10-07T05:46:29.514Z,5.45
2023-10-07T05:51:31.635Z,2.83
2023-10-07T05:54:01.898Z,4.45
2023-10-07T05:56:32.889Z,3.63
2023-10-07T05:59:04.253Z,4.68
2023-10-07T06:01:36.023Z,4.03
2023-10-07T06:04:06.555Z,3.65
2023-10-07T06:06:37.991Z,4.75
2023-10-07T06:09:12.636Z,4.28
2023-10-07T06:11:45.012Z,3.97
2023-10-07T06:14:15.758Z,2.88
2023-10-07T06:16:46.574Z,4.25
2023-10-07T06:19:16.896Z,3.67
2023-10-07T06:21:53.248Z,5.75
2023-10-07T06:24:26.603Z,5.32
2023-10-07T06:26:56.891Z,4.55
2023-10-07T06:29:34.178Z,9.82
2023-10-07T06:32:22.721Z,5.82
2023-10-07T06:35:01.941Z,4.93
2023-10-07T06:37:32.422Z,6.47
2023-10-07T06:40:15.155Z,6.72
2023-10-07T06:42:46.913Z,4.18
2023-10-07T06:45:20.251Z,4.05
2023-10-07T06:47:51.212Z,4.57
2023-10-07T06:50:30.002Z,4.65
2023-10-07T06:53:00.208Z,3.90
2023-10-07T06:55:30.974Z,3.58
2023-10-07T06:58:01.130Z,1.60
2023-10-07T07:00:47.489Z,1.73
2023-10-07T07:03:21.727Z,4.65
2023-10-07T07:05:52.654Z,2.38
2023-10-07T07:08:25.361Z,1.45
2023-10-07T07:10:58.656Z,1.65
2023-10-07T07:13:30.025Z,1.60
2023-10-07T07:16:00.383Z,2.17
2023-10-07T07:18:30.738Z,2.55
2023-10-07T07:21:27.678Z,2.63
2023-10-07T07:23:57.861Z,3.45
2023-10-07T07:26:28.083Z,1.58
2023-10-07T07:28:59.550Z,1.15
2023-10-07T07:34:21.681Z,4.85
2023-10-07T07:36:58.514Z,2.72
2023-10-07T07:39:32.589Z,1.75
2023-10-07T07:42:19.350Z,0.75
2023-10-07T07:44:59.730Z,1.50
2023-10-07T07:47:34.900Z,2.08
2023-10-07T07:50:10.563Z,1.98
2023-10-07T07:52:42.235Z,2.70
2023-10-07T07:55:17.108Z,1.92
2023-10-07T07:57:47.544Z,1.58
2023-10-07T08:00:22.791Z,3.45
2023-10-07T08:02:53.171Z,2.40
2023-10-07T08:05:23.800Z,2.75
2023-10-07T08:07:54.283Z,2.45
2023-10-07T08:10:25.444Z,2.25
2023-10-07T08:12:55.954Z,1.35
2023-10-07T08:15:26.229Z,2.70
2023-10-07T08:17:59.468Z,2.17
2023-10-07T08:20:36.656Z,2.38
2023-10-07T08:23:10.602Z,3.85
2023-10-07T08:25:48.325Z,1.95
2023-10-07T08:30:52.386Z,2.17
2023-10-07T08:33:26.239Z,1.33
2023-10-07T08:35:59.644Z,2.63
2023-10-07T08:38:40.253Z,1.27
2023-10-07T08:41:12.391Z,1.92
2023-10-07T08:44:05.544Z,1.50
2023-10-07T08:46:41.925Z,2.30
2023-10-07T08:49:16.715Z,4.05
2023-10-07T08:51:48.354Z,2.85
2023-10-07T08:54:28.396Z,1.40
2023-10-07T08:57:17.815Z,3.92
2023-10-07T08:59:55.266Z,1.13
2023-10-07T09:02:33.173Z,2.70
2023-10-07T09:05:18.379Z,1.40
2023-10-07T09:07:51.784Z,1.73
2023-10-07T09:10:30.369Z,1.63
2023-10-07T09:13:06.469Z,1.88
2023-10-07T09:15:44.598Z,2.72
2023-10-07T09:18:19.963Z,2.10
2023-10-07T09:20:54.147Z,3.00
2023-10-07T09:23:26.008Z,2.28
2023-10-07T09:25:58.181Z,2.38
2023-10-07T09:28:33.550Z,2.30
2023-10-07T09:31:08.523Z,1.73
2023-10-07T09:33:40.184Z,3.42
2023-10-07T09:36:28.745Z,1.88
2023-10-07T09:39:18.759Z,0.95
2023-10-07T09:42:05.481Z,2.42
2023-10-07T09:44:40.283Z,2.83
2023-10-07T09:47:22.471Z,2.35
2023-10-07T09:49:59.617Z,3.83
2023-10-07T09:52:34.844Z,2.03
2023-10-07T09:55:30.888Z,1.98
2023-10-07T09:58:44.199Z,3.42
2023-10-07T10:01:40.037Z,3.58
2023-10-07T10:04:30.972Z,1.65
2023-10-07T10:07:08.717Z,3.38
2023-10-07T10:12:34.461Z,2.28
2023-10-07T10:17:58.313Z,1.83
2023-10-07T10:20:44.982Z,2.15
2023-10-07T10:23:24.402Z,1.35
2023-10-07T10:25:55.907Z,1.63
2023-10-07T10:31:01.534Z,2.38
2023-10-07T10:33:34.056Z,1.83
2023-10-07T10:36:06.011Z,2.22
2023-10-07T10:38:43.397Z,1.20
2023-10-07T10:41:14.331Z,2.05
2023-10-07T10:43:44.989Z,2.85
2023-10-07T10:46:15.243Z,1.75
2023-10-07T10:48:45.475Z,3.47
2023-10-07T10:51:19.015Z,4.55
2023-10-07T10:53:50.853Z,5.82
2023-10-07T10:56:21.057Z,4.43
2023-10-07T10:58:56.533Z,6.28
2023-10-07T11:01:28.150Z,5.93
2023-10-07T11:03:58.458Z,3.35
2023-10-07T11:06:30.702Z,2.92
2023-10-07T11:09:05.901Z,2.72
2023-10-07T11:11:37.790Z,3.92
2023-10-07T11:14:15.565Z,5.53
2023-10-07T11:16:48.041Z,4.60
2023-10-07T11:19:21.826Z,3.30
2023-10-07T11:21:51.986Z,2.25
2023-10-07T11:24:27.187Z,3.58
2023-10-07T11:27:02.963Z,1.73
2023-10-07T11:29:33.273Z,4.85
2023-10-07T11:32:05.943Z,3.88
2023-10-07T11:34:46.908Z,5.72
2023-10-07T11:37:24.434Z,2.80
2023-10-07T11:39:55.920Z,1.52
2023-10-07T11:44:58.271Z,1.10
2023-10-07T11:47:29.550Z,1.85
2023-10-07T11:49:59.734Z,1.77
2023-10-07T11:52:31.642Z,1.25
2023-10-07T11:55:03.188Z,2.50
2023-10-07T11:57:42.121Z,1.02
2023-10-07T12:00:25.186Z,0.75
2023-10-07T12:03:02.628Z,0.85
2023-10-07T12:05:33.784Z,0.40
2023-10-07T12:08:04.702Z,0.85
2023-10-07T12:10:36.188Z,0.77
2023-10-07T12:13:13.658Z,0.80
2023-10-07T12:18:18.501Z,1.48
2023-10-07T12:20:48.929Z,0.32
2023-10-07T12:23:19.616Z,0.30
2023-10-07T12:25:49.801Z,0.30
2023-10-07T12:28:20.567Z,1.52
2023-10-07T12:30:51.651Z,0.28
2023-10-07T12:33:35.037Z,0.73
2023-10-07T12:36:17.485Z,0.30
2023-10-07T12:38:47.817Z,0.47
2023-10-07T12:41:18.955Z,1.33
2023-10-07T12:43:50.037Z,0.80
2023-10-07T12:46:20.436Z,0.63
2023-10-07T12:48:50.808Z,0.82
2023-10-07T12:51:21.366Z,1.00
2023-10-07T12:53:53.457Z,0.40
2023-10-07T12:56:24.490Z,0.70
2023-10-07T12:58:55.772Z,0.50
2023-10-07T13:01:26.096Z,0.45
2023-10-07T13:03:56.444Z,0.82
2023-10-07T13:06:27.917Z,0.60
2023-10-07T13:11:31.051Z,1.17
2023-10-07T13:14:03.396Z,0.80
2023-10-07T13:16:39.457Z,0.82
2023-10-07T13:19:09.702Z,0.63
2023-10-07T13:21:40.241Z,0.73
2023-10-07T13:24:10.775Z,0.28
2023-10-07T13:26:41.193Z,0.32
2023-10-07T13:29:12.673Z,0.20
2023-10-07T13:31:43.251Z,0.50
2023-10-07T13:34:13.573Z,0.35
2023-10-07T13:36:45.574Z,3.40
2023-10-07T13:39:18.990Z,0.77
2023-10-07T13:41:50.323Z,0.70
2023-10-07T13:44:25.149Z,0.40
2023-10-07T13:46:57.264Z,0.65
2023-10-07T13:49:27.533Z,0.30
2023-10-07T13:52:07.445Z,0.40
2023-10-07T13:54:49.735Z,0.20
2023-10-07T13:57:24.439Z,0.50
2023-10-07T13:59:55.022Z,0.40
2023-10-07T14:02:25.275Z,0.50
2023-10-07T14:05:00.928Z,0.20
2023-10-07T14:07:32.172Z,0.90
2023-10-07T14:10:02.420Z,0.52
2023-10-07T14:12:34.805Z,0.32
2023-10-07T14:15:07.075Z,0.20
2023-10-07T14:17:38.289Z,0.63
2023-10-07T14:20:09.191Z,0.20
2023-10-07T14:22:39.386Z,1.38
2023-10-07T14:25:10.475Z,0.30
2023-10-07T14:27:40.670Z,0.20
2023-10-07T14:30:12.090Z,0.40
2023-10-07T14:32:42.761Z,0.77
2023-10-07T14:35:13.864Z,1.38
2023-10-07T14:37:47.666Z,0.75
2023-10-07T14:40:20.838Z,2.22
2023-10-07T14:42:52.512Z,1.52
2023-10-07T14:45:24.003Z,0.20
2023-10-07T14:50:25.163Z,0.32
2023-10-07T14:52:55.670Z,1.20
2023-10-07T14:55:26.163Z,0.30
2023-10-07T14:57:57.101Z,0.20
2023-10-07T15:00:27.334Z,0.65
2023-10-07T15:02:58.361Z,0.75
2023-10-07T15:05:29.080Z,0.40
2023-10-07T15:07:59.368Z,0.45
2023-10-07T15:10:31.408Z,0.47
2023-10-07T15:13:01.576Z,0.40
2023-10-07T15:15:31.789Z,0.52
2023-10-07T15:18:02.051Z,0.30
2023-10-07T15:20:33.527Z,2.00
2023-10-07T15:23:05.857Z,0.55
2023-10-07T15:25:48.859Z,0.73
2023-10-07T15:28:19.208Z,0.40
2023-10-07T15:30:51.311Z,0.68
2023-10-07T15:33:25.149Z,0.65
2023-10-07T15:35:58.799Z,0.68
2023-10-07T15:38:29.594Z,0.47
2023-10-07T15:40:59.964Z,0.30
2023-10-07T15:43:30.177Z,0.63
2023-10-07T15:46:09.208Z,0.32
2023-10-07T15:48:39.438Z,0.40
2023-10-07T15:51:09.464Z,0.40
2023-10-07T15:53:40.156Z,0.60
2023-10-07T15:56:15.355Z,1.30
2023-10-07T15:58:49.697Z,0.38
2023-10-07T16:01:19.937Z,0.30
2023-10-07T16:03:50.193Z,0.40
2023-10-07T16:06:20.552Z,0.38
2023-10-07T16:08:50.818Z,1.85
2023-10-07T16:11:24.237Z,0.75
2023-10-07T16:13:54.769Z,0.60
2023-10-07T16:16:25.021Z,0.47
2023-10-07T16:18:55.238Z,2.50
2023-10-07T16:21:25.504Z,0.50
2023-10-07T16:23:56.187Z,0.60
2023-10-07T16:26:26.465Z,0.20
2023-10-07T16:28:56.708Z,0.38
2023-10-07T16:31:26.894Z,1.17
2023-10-07T16:33:57.030Z,0.22
2023-10-07T16:36:30.195Z,0.98
2023-10-07T16:39:04.657Z,0.47
2023-10-07T16:41:35.509Z,0.57
2023-10-07T16:44:06.144Z,0.82
2023-10-07T16:46:36.355Z,0.57
2023-10-07T16:49:06.751Z,2.33
2023-10-07T16:51:37.296Z,1.40
2023-10-07T16:54:07.608Z,1.65
2023-10-07T16:56:38.812Z,1.27
2023-10-07T16:59:09.020Z,0.85
2023-10-07T17:01:40.969Z,2.55
2023-10-07T17:04:11.286Z,1.30
2023-10-07T17:06:41.861Z,0.73
2023-10-07T17:09:12.191Z,0.30
2023-10-07T17:11:42.479Z,0.73
2023-10-07T17:14:12.622Z,0.45
2023-10-07T17:16:45.104Z,0.65
2023-10-07T17:19:15.258Z,1.52
2023-10-07T17:21:46.377Z,1.55
2023-10-07T17:24:17.337Z,0.82
2023-10-07T17:26:48.010Z,0.77
2023-10-07T17:29:18.145Z,1.52
2023-10-07T17:31:48.491Z,2.75
2023-10-07T17:34:18.908Z,0.45
2023-10-07T17:36:50.736Z,2.63
2023-10-07T17:39:20.856Z,0.60
2023-10-07T17:41:51.931Z,1.05
2023-10-07T17:44:22.351Z,3.13
2023-10-07T17:46:52.643Z,1.25
2023-10-07T17:49:22.772Z,2.13
2023-10-07T17:51:52.760Z,0.45
2023-10-07T17:54:23.075Z,5.20
2023-10-07T17:56:53.096Z,0.55
2023-10-07T17:59:24.326Z,0.70
2023-10-07T18:01:55.287Z,4.32
2023-10-07T18:04:25.435Z,1.70
2023-10-07T18:06:55.715Z,4.20
2023-10-07T18:09:25.852Z,1.50
2023-10-07T18:11:56.140Z,0.73
2023-10-07T18:14:31.757Z,0.95
2023-10-07T18:17:02.494Z,1.20
2023-10-07T18:19:33.902Z,3.03
2023-10-07T18:22:05.134Z,0.73
2023-10-07T18:24:35.686Z,0.90
2023-10-07T18:27:07.641Z,3.80
2023-10-07T18:29:37.895Z,3.55
2023-10-07T18:32:09.318Z,2.17
2023-10-07T18:37:09.923Z,1.63
2023-10-07T18:39:40.110Z,4.55
2023-10-07T18:42:11.004Z,4.57
2023-10-07T18:44:41.209Z,2.92
2023-10-07T18:47:11.823Z,7.07
2023-10-07T18:49:43.844Z,2.67
2023-10-07T18:52:14.384Z,1.52
2023-10-07T18:54:44.620Z,1.80
2023-10-07T18:57:14.843Z,4.57
2023-10-07T18:59:45.146Z,1.55
2023-10-07T19:02:15.241Z,2.85
2023-10-07T19:04:45.774Z,3.60
2023-10-07T19:07:17.385Z,8.55
2023-10-07T19:09:47.551Z,2.10
2023-10-07T19:12:18.902Z,7.00
2023-10-07T19:14:49.443Z,4.38
2023-10-07T19:17:19.875Z,2.88
2023-10-07T19:19:50.488Z,1.58
2023-10-07T19:22:20.777Z,3.22
2023-10-07T19:24:51.199Z,5.03
2023-10-07T19:27:22.924Z,2.75
2023-10-07T19:29:53.101Z,2.17
2023-10-07T19:32:23.589Z,2.60
2023-10-07T19:34:56.637Z,1.77
2023-10-07T19:37:26.965Z,1.17
2023-10-07T19:39:57.266Z,3.45
2023-10-07T19:42:27.508Z,1.05
2023-10-07T19:44:57.671Z,2.22
2023-10-07T19:47:28.129Z,3.72
2023-10-07T19:49:58.418Z,4.30
2023-10-07T19:52:29.692Z,4.57
2023-10-07T19:55:01.262Z,3.05
2023-10-07T19:57:31.788Z,6.72
2023-10-07T20:00:06.697Z,3.22
2023-10-07T20:02:38.004Z,6.20
2023-10-07T20:07:50.512Z,3.08
2023-10-07T20:10:22.955Z,2.88
2023-10-07T20:12:56.213Z,4.22
2023-10-07T20:15:26.373Z,11.02
2023-10-07T20:18:02.374Z,2.47
2023-10-07T20:20:32.659Z,1.17
2023-10-07T20:23:03.097Z,3.33
2023-10-07T20:25:34.992Z,4.88
2023-10-07T20:28:05.718Z,3.20
2023-10-07T20:30:37.351Z,0.98
2023-10-07T20:33:07.753Z,4.40
2023-10-07T20:35:38.228Z,4.97
2023-10-07T20:38:08.475Z,4.95
2023-10-07T20:40:38.601Z,2.97
2023-10-07T20:43:08.784Z,3.50
2023-10-07T20:45:38.764Z,2.30
2023-10-07T20:48:09.801Z,3.35
2023-10-07T20:50:40.062Z,2.60
2023-10-07T20:53:10.305Z,4.38
2023-10-07T20:55:48.966Z,3.63
2023-10-07T20:58:19.151Z,3.70
2023-10-07T21:00:49.283Z,1.05
2023-10-07T21:03:19.665Z,2.85
2023-10-07T21:05:49.954Z,4.28
2023-10-07T21:08:20.310Z,3.88
2023-10-07T21:10:50.819Z,5.55
2023-10-07T21:13:21.080Z,5.47
2023-10-07T21:15:51.495Z,3.63
2023-10-07T21:18:21.687Z,3.10
2023-10-07T21:20:51.859Z,9.82
2023-10-07T21:23:22.330Z,2.40
2023-10-07T21:25:53.690Z,4.75
2023-10-07T21:28:24.303Z,4.15
2023-10-07T21:30:54.311Z,4.80
2023-10-07T21:33:24.829Z,2.28
2023-10-07T21:35:56.555Z,4.50
2023-10-07T21:38:26.873Z,3.50
2023-10-07T21:40:57.257Z,4.32
2023-10-07T21:43:29.133Z,4.38
2023-10-07T21:46:01.044Z,6.90
2023-10-07T21:48:31.547Z,2.38
2023-10-07T21:51:09.561Z,5.07
2023-10-07T21:53:40.392Z,4.22
2023-10-07T21:56:14.132Z,4.22
2023-10-07T21:58:45.172Z,1.85
2023-10-07T22:01:19.976Z,7.18
2023-10-07T22:03:50.559Z,3.70
2023-10-07T22:06:22.789Z,9.40
2023-10-07T22:08:53.126Z,2.97
2023-10-07T22:11:23.503Z,2.78
2023-10-07T22:13:54.159Z,2.35
2023-10-07T22:16:26.496Z,6.45
2023-10-07T22:18:57.173Z,6.68
2023-10-07T22:21:29.132Z,1.65
2023-10-07T22:24:00.988Z,3.78
2023-10-07T22:26:33.701Z,3.47
2023-10-07T22:29:06.406Z,2.88
2023-10-07T22:31:50.186Z,6.50
2023-10-07T22:36:57.344Z,2.30
2023-10-07T22:39:34.671Z,3.13
2023-10-07T22:42:14.588Z,8.70
2023-10-07T22:44:48.349Z,3.17
2023-10-07T22:47:19.010Z,1.98
2023-10-07T22:49:52.394Z,4.13
2023-10-07T22:52:23.548Z,9.63
2023-10-07T22:55:16.765Z,2.05
2023-10-07T22:57:49.926Z,2.70
2023-10-07T23:00:25.347Z,4.60
2023-10-07T23:02:56.768Z,2.55
2023-10-07T23:05:28.290Z,3.83
2023-10-07T23:08:03.469Z,1.35
2023-10-07T23:10:42.806Z,2.80
2023-10-07T23:13:16.448Z,3.00
2023-10-07T23:15:47.827Z,3.75
2023-10-07T23:20:53.049Z,6.18
2023-10-07T23:23:42.932Z,2.90
2023-10-07T23:26:24.408Z,7.82
2023-10-07T23:28:59.683Z,2.25
2023-10-07T23:31:30.650Z,1.88
2023-10-07T23:34:21.278Z,2.42
2023-10-07T23:36:55.650Z,1.98
2023-10-07T23:39:34.128Z,1.42
2023-10-07T23:42:07.557Z,3.25
2023-10-07T23:44:38.398Z,2.50
2023-10-07T23:47:11.427Z,5.32
2023-10-07T23:49:44.725Z,7.57
2023-10-07T23:52:17.643Z,2.90
2023-10-07T23:54:51.680Z,2.20
2023-10-07T23:57:25.763Z,4.20
2023-10-07T23:59:59.932Z,3.45
